createdAt,value
2024-05-09T00:00:46.742Z,82.06
2024-05-09T00:06:09.736Z,82.79
2024-05-09T00:11:15.267Z,83.13
2024-05-09T00:16:18.007Z,83.33
2024-05-09T00:21:20.609Z,83.33
2024-05-09T00:26:24.265Z,83.45
2024-05-09T00:31:26.905Z,84.12
2024-05-09T00:36:29.530Z,84.13
2024-05-09T00:41:32.194Z,83.84
2024-05-09T00:46:34.922Z,83.72
2024-05-09T00:51:39.867Z,83.59
2024-05-09T00:56:42.879Z,84.84
2024-05-09T01:01:46.285Z,85.42
2024-05-09T01:06:49.093Z,84.99
2024-05-09T01:11:51.671Z,84.89
2024-05-09T01:16:54.704Z,84.91
2024-05-09T01:21:57.506Z,85.05
2024-05-09T01:27:00.066Z,85.91
2024-05-09T01:32:04.555Z,86.43
2024-05-09T01:37:07.378Z,86.61
2024-05-09T01:42:09.922Z,86.97
2024-05-09T01:47:12.688Z,87.15
2024-05-09T01:52:15.466Z,87.38
2024-05-09T01:57:18.188Z,87.82
2024-05-09T02:02:20.899Z,87.58
2024-05-09T02:07:23.558Z,87.65
2024-05-09T02:12:26.261Z,88.01
2024-05-09T02:17:29.083Z,88.78
2024-05-09T02:22:31.763Z,89.32
2024-05-09T02:27:34.311Z,88.82
2024-05-09T02:32:36.899Z,88.93
2024-05-09T02:37:39.555Z,89.07
2024-05-09T02:42:42.079Z,89.27
2024-05-09T02:47:44.822Z,89.15
2024-05-09T02:52:47.553Z,89.23
2024-05-09T02:57:50.104Z,89.04
2024-05-09T03:02:52.946Z,89.19
2024-05-09T03:07:55.754Z,88.72
2024-05-09T03:12:58.406Z,88.24
2024-05-09T03:18:01.605Z,88.56
2024-05-09T03:23:06.328Z,88.41
2024-05-09T03:28:11.561Z,88.18
2024-05-09T03:33:16.746Z,87.97
2024-05-09T03:38:19.831Z,87.99
2024-05-09T03:43:22.411Z,87.94
2024-05-09T03:48:25.083Z,88.01
2024-05-09T03:53:28.061Z,87.76
2024-05-09T03:58:30.599Z,87.81
2024-05-09T04:03:34.054Z,87.34
2024-05-09T04:08:37.586Z,86.54
2024-05-09T04:13:40.318Z,86.58
2024-05-09T04:18:42.955Z,86.26
2024-05-09T04:23:45.675Z,85.41
2024-05-09T04:28:48.377Z,84.77
2024-05-09T04:33:51.130Z,84.30
2024-05-09T04:38:53.769Z,84.45
2024-05-09T04:43:56.366Z,84.48
2024-05-09T04:48:58.994Z,83.72
2024-05-09T04:54:02.048Z,83.37
2024-05-09T04:59:04.635Z,83.33
2024-05-09T05:04:07.316Z,81.62
2024-05-09T05:09:09.861Z,81.62
2024-05-09T05:14:12.517Z,81.92
2024-05-09T05:19:17.141Z,81.79
2024-05-09T05:24:20.357Z,80.75
2024-05-09T05:29:23.289Z,80.01
2024-05-09T05:34:25.916Z,78.36
2024-05-09T05:39:28.694Z,77.17
2024-05-09T05:44:31.470Z,75.64
2024-05-09T05:49:34.497Z,73.63
2024-05-09T05:54:37.115Z,71.95
2024-05-09T05:59:40.403Z,71.19
2024-05-09T06:04:43.159Z,69.68
2024-05-09T06:09:48.197Z,67.90
2024-05-09T06:14:52.327Z,66.79
2024-05-09T06:19:55.079Z,65.86
2024-05-09T06:24:57.886Z,63.30
2024-05-09T06:30:00.479Z,62.82
2024-05-09T06:35:03.289Z,62.53
2024-05-09T06:40:07.588Z,61.02
2024-05-09T06:45:12.440Z,57.81
2024-05-09T06:50:23.266Z,56.06
2024-05-09T06:55:27.189Z,54.52
2024-05-09T07:00:35.968Z,53.00
2024-05-09T07:05:42.473Z,52.79
2024-05-09T07:10:45.648Z,52.81
2024-05-09T07:15:48.425Z,51.12
2024-05-09T07:20:51.244Z,50.40
2024-05-09T07:25:54.005Z,50.10
2024-05-09T07:30:56.666Z,49.62
2024-05-09T07:35:59.324Z,48.68
2024-05-09T07:41:02.077Z,46.03
2024-05-09T07:47:04.433Z,45.43
2024-05-09T07:56:35.024Z,43.47
2024-05-09T08:01:37.841Z,44.64
2024-05-09T08:06:40.511Z,44.27
2024-05-09T08:11:44.692Z,42.99
2024-05-09T08:16:47.392Z,43.97
2024-05-09T08:21:50.033Z,42.39
2024-05-09T08:26:52.739Z,40.65
2024-05-09T08:31:56.867Z,41.05
2024-05-09T08:37:03.814Z,40.72
2024-05-09T08:42:16.789Z,40.40
2024-05-09T08:47:19.450Z,38.04
2024-05-09T08:52:22.121Z,39.03
2024-05-09T08:57:26.024Z,38.75
2024-05-09T09:02:29.023Z,38.88
2024-05-09T09:07:33.420Z,38.36
2024-05-09T09:12:36.149Z,37.85
2024-05-09T09:17:38.977Z,38.42
2024-05-09T09:22:41.587Z,38.93
2024-05-09T09:27:44.348Z,36.53
2024-05-09T09:32:49.688Z,36.46
2024-05-09T09:37:53.830Z,35.55
2024-05-09T09:42:57.878Z,35.62
2024-05-09T09:48:01.840Z,35.97
2024-05-09T09:53:07.483Z,35.65
2024-05-09T09:58:13.214Z,35.49
2024-05-09T10:03:16.962Z,35.77
2024-05-09T10:08:21.979Z,36.16
2024-05-09T10:13:33.101Z,35.62
2024-05-09T10:18:37.112Z,36.32
2024-05-09T10:23:43.179Z,35.70
2024-05-09T10:28:45.834Z,35.17
2024-05-09T10:33:50.763Z,36.12
2024-05-09T10:38:55.106Z,36.32
2024-05-09T10:43:57.692Z,35.98
2024-05-09T10:49:04.241Z,35.71
2024-05-09T10:54:08.897Z,36.31
2024-05-09T10:59:12.849Z,37.22
2024-05-09T11:04:15.482Z,36.72
2024-05-09T11:09:18.273Z,35.60
2024-05-09T11:14:21.034Z,34.90
2024-05-09T11:19:23.924Z,34.63
2024-05-09T11:24:26.763Z,34.91
2024-05-09T11:29:40.200Z,34.61
2024-05-09T11:34:42.943Z,34.36
2024-05-09T11:39:45.753Z,34.27
2024-05-09T11:44:48.448Z,34.51
2024-05-09T11:49:51.927Z,34.80
2024-05-09T11:54:54.601Z,34.55
2024-05-09T11:59:57.318Z,34.61
2024-05-09T12:05:00.027Z,35.30
2024-05-09T12:10:03.469Z,35.10
2024-05-09T12:15:07.780Z,35.40
2024-05-09T12:20:20.925Z,35.28
2024-05-09T12:25:28.274Z,34.86
2024-05-09T12:30:36.737Z,35.12
2024-05-09T12:35:44.608Z,34.40
2024-05-09T12:40:49.344Z,34.68
2024-05-09T12:45:52.106Z,34.48
2024-05-09T12:50:57.313Z,34.13
2024-05-09T12:56:02.420Z,33.71
2024-05-09T13:01:06.544Z,33.87
2024-05-09T13:06:10.908Z,33.92
2024-05-09T13:11:14.142Z,33.90
2024-05-09T13:16:16.957Z,33.81
2024-05-09T13:21:19.745Z,33.55
2024-05-09T13:26:22.365Z,32.76
2024-05-09T13:31:25.040Z,31.95
2024-05-09T13:36:28.107Z,30.89
2024-05-09T13:41:30.761Z,29.94
2024-05-09T13:46:33.543Z,28.58
2024-05-09T13:51:36.204Z,27.90
2024-05-09T13:56:39.236Z,27.84
2024-05-09T14:01:41.987Z,27.43
2024-05-09T14:06:44.755Z,27.01
2024-05-09T14:11:47.594Z,25.85
2024-05-09T14:16:50.327Z,25.91
2024-05-09T14:21:52.937Z,25.68
2024-05-09T14:26:56.195Z,24.99
2024-05-09T14:31:58.825Z,24.60
2024-05-09T14:37:01.503Z,23.65
2024-05-09T14:42:04.555Z,23.54
2024-05-09T14:47:07.455Z,22.54
2024-05-09T14:52:10.259Z,22.03
2024-05-09T14:57:13.247Z,21.50
2024-05-09T15:02:15.814Z,21.80
2024-05-09T15:07:19.100Z,21.58
2024-05-09T15:12:21.774Z,21.37
2024-05-09T15:17:24.428Z,21.55
2024-05-09T15:22:26.970Z,21.09
2024-05-09T15:27:30.186Z,20.32
2024-05-09T15:32:33.005Z,20.05
2024-05-09T15:37:35.910Z,20.55
2024-05-09T15:42:41.692Z,22.15
2024-05-09T15:47:45.767Z,23.82
2024-05-09T15:52:49.660Z,24.39
2024-05-09T15:57:52.284Z,23.61
2024-05-09T16:02:55.002Z,22.80
2024-05-09T16:07:58.064Z,21.88
2024-05-09T16:13:00.948Z,21.84
2024-05-09T16:18:04.006Z,22.76
2024-05-09T16:23:07.596Z,23.55
2024-05-09T16:28:11.254Z,25.54
2024-05-09T16:33:16.754Z,27.63
2024-05-09T16:38:21.872Z,28.91
2024-05-09T16:43:24.523Z,30.36
2024-05-09T16:48:27.219Z,31.38
2024-05-09T16:53:29.695Z,32.30
2024-05-09T16:58:32.433Z,32.86
2024-05-09T17:03:35.365Z,33.26
2024-05-09T17:08:38.156Z,33.66
2024-05-09T17:13:42.774Z,34.08
2024-05-09T17:18:48.302Z,34.73
2024-05-09T17:23:54.138Z,35.56
2024-05-09T17:28:57.059Z,36.25
2024-05-09T17:33:59.770Z,37.25
2024-05-09T17:39:02.644Z,37.83
2024-05-09T17:44:06.342Z,38.07
2024-05-09T17:49:09.111Z,38.72
2024-05-09T17:54:11.747Z,39.66
2024-05-09T17:59:14.273Z,40.35
2024-05-09T18:04:17.750Z,41.15
2024-05-09T18:09:20.837Z,42.04
2024-05-09T18:14:23.457Z,43.04
2024-05-09T18:19:26.243Z,44.55
2024-05-09T18:24:28.902Z,45.44
2024-05-09T18:29:31.611Z,46.31
2024-05-09T18:34:34.223Z,47.33
2024-05-09T18:39:36.880Z,48.06
2024-05-09T18:44:39.555Z,48.86
2024-05-09T18:49:42.319Z,49.52
2024-05-09T18:54:45.010Z,50.25
2024-05-09T18:59:47.740Z,50.68
2024-05-09T19:04:51.064Z,51.76
2024-05-09T19:09:53.800Z,52.38
2024-05-09T19:14:56.389Z,53.28
2024-05-09T19:19:59.040Z,53.97
2024-05-09T19:25:01.632Z,54.55
2024-05-09T19:30:11.895Z,55.09
2024-05-09T19:35:19.756Z,55.84
2024-05-09T19:40:29.001Z,56.38
2024-05-09T19:45:35.643Z,56.83
2024-05-09T19:50:43.250Z,57.02
2024-05-09T19:55:50.615Z,57.65
2024-05-09T20:00:53.276Z,58.35
2024-05-09T20:05:55.959Z,58.86
2024-05-09T20:10:58.712Z,59.28
2024-05-09T20:16:01.644Z,59.53
2024-05-09T20:21:04.443Z,60.71
2024-05-09T20:26:08.173Z,61.09
2024-05-09T20:31:10.794Z,61.10
2024-05-09T20:36:13.447Z,61.77
2024-05-09T20:41:16.048Z,62.10
2024-05-09T20:46:18.954Z,62.42
2024-05-09T20:51:21.805Z,62.78
2024-05-09T20:56:24.640Z,62.88
2024-05-09T21:01:27.355Z,63.94
2024-05-09T21:06:30.034Z,64.26
2024-05-09T21:11:32.629Z,64.11
2024-05-09T21:16:35.330Z,64.40
2024-05-09T21:21:41.745Z,64.84
2024-05-09T21:26:44.415Z,65.10
2024-05-09T21:31:47.036Z,64.95
2024-05-09T21:36:49.661Z,64.51
2024-05-09T21:41:52.312Z,64.15
2024-05-09T21:46:55.100Z,64.01
2024-05-09T21:51:57.840Z,64.25
2024-05-09T21:57:00.424Z,64.59
2024-05-09T22:02:03.266Z,65.57
2024-05-09T22:07:06.659Z,66.92
2024-05-09T22:12:09.511Z,67.04
2024-05-09T22:17:12.248Z,67.17
2024-05-09T22:22:15.072Z,67.37
2024-05-09T22:27:17.972Z,68.08
2024-05-09T22:32:20.718Z,68.41
2024-05-09T22:37:23.474Z,69.28
2024-05-09T22:42:27.051Z,70.03
2024-05-09T22:47:29.724Z,70.49
2024-05-09T22:52:32.444Z,70.47
2024-05-09T22:57:35.099Z,70.52
2024-05-09T23:02:37.912Z,70.62
2024-05-09T23:07:40.584Z,70.97
2024-05-09T23:12:43.305Z,71.48
2024-05-09T23:17:46.068Z,71.84
2024-05-09T23:22:48.786Z,71.73
2024-05-09T23:27:51.430Z,71.86
2024-05-09T23:32:54.287Z,71.96
2024-05-09T23:37:57.147Z,71.72
2024-05-09T23:42:59.796Z,71.61
2024-05-09T23:48:02.837Z,71.60
2024-05-09T23:53:07.774Z,71.45
2024-05-09T23:58:11.795Z,71.34
